Time,TemperatureF,DewpointF,PressureIn,WindDirection,WindDirectionDegrees,WindSpeedMPH,WindSpeedGustMPH,Humidity,HourlyPrecipIn,Conditions,Clouds,dailyrainin,SoftwareType,DateUTC
2013-02-22 00:13:00,14.4,11.0,30.25,SW,225,0.0,0.0,87,0.00,,,0.00,weatherlink.com 1.10,2013-02-22 05:13:00,
2013-02-22 00:29:00,16.2,13.0,30.28,WNW,303,0.0,3.0,86,0.00,,,0.00,weatherlink.com 1.10,2013-02-22 05:29:00,
2013-02-22 00:44:00,19.5,16.0,30.28,NW,306,1.0,8.0,87,0.00,,,0.00,weatherlink.com 1.10,2013-02-22 05:44:00,
2013-02-22 00:59:00,22.1,17.0,30.27,NW,312,3.0,7.0,82,0.00,,,0.00,weatherlink.com 1.10,2013-02-22 05:59:00,
2013-02-22 01:14:00,22.9,18.0,30.28,NW,310,2.0,10.0,80,0.00,,,0.00,weatherlink.com 1.10,2013-02-22 06:14:00,
2013-02-22 01:29:00,22.9,17.0,30.28,WNW,296,2.0,8.0,79,0.00,,,0.00,weatherlink.com 1.10,2013-02-22 06:29:00,
2013-02-22 01:44:00,22.6,17.0,30.28,NW,305,1.0,5.0,79,0.00,,,0.00,weatherlink.com 1.10,2013-02-22 06:44:00,
2013-02-22 01:59:00,20.6,15.0,30.28,WSW,246,0.0,7.0,80,0.00,,,0.00,weatherlink.com 1.10,2013-02-22 06:59:00,
2013-02-22 02:14:00,19.6,15.0,30.27,WSW,246,0.0,3.0,83,0.00,,,0.00,weatherlink.com 1.10,2013-02-22 07:14:00,
2013-02-22 02:29:00,18.4,15.0,30.27,WSW,246,0.0,1.0,85,0.00,,,0.00,weatherlink.com 1.10,2013-02-22 07:29:00,
2013-02-22 02:44:00,18.0,15.0,30.28,SSW,198,0.0,2.0,86,0.00,,,0.00,weatherlink.com 1.10,2013-02-22 07:44:00,
2013-02-22 02:59:00,16.9,13.0,30.28,SSW,198,0.0,0.0,86,0.00,,,0.00,weatherlink.com 1.10,2013-02-22 07:59:00,
2013-02-22 03:14:00,16.6,14.0,30.29,SSW,198,0.0,2.0,89,0.00,,,0.00,weatherlink.com 1.10,2013-02-22 08:14:00,
2013-02-22 03:29:00,16.6,14.0,30.30,SSW,198,0.0,1.0,88,0.00,,,0.00,weatherlink.com 1.10,2013-02-22 08:29:00,
2013-02-22 03:44:00,16.6,14.0,30.29,SSW,198,0.0,1.0,89,0.00,,,0.00,weatherlink.com 1.10,2013-02-22 08:44:00,
2013-02-22 03:59:00,15.7,13.0,30.30,SSW,198,0.0,0.0,88,0.00,,,0.00,weatherlink.com 1.10,2013-02-22 08:59:00,
2013-02-22 04:14:00,14.9,12.0,30.30,SSW,198,0.0,0.0,88,0.00,,,0.00,weatherlink.com 1.10,2013-02-22 09:14:00,
2013-02-22 04:31:00,14.2,12.0,30.31,SSW,198,0.0,1.0,89,0.00,,,0.00,weatherlink.com 1.10,2013-02-22 09:31:00,
2013-02-22 04:44:00,14.1,12.0,30.31,SSW,198,0.0,2.0,90,0.00,,,0.00,weatherlink.com 1.10,2013-02-22 09:44:00,
2013-02-22 04:59:00,13.3,11.0,30.31,SSW,198,0.0,1.0,90,0.00,,,0.00,weatherlink.com 1.10,2013-02-22 09:59:00,
2013-02-22 05:14:00,12.5,10.0,30.32,SSW,198,0.0,0.0,89,0.00,,,0.00,weatherlink.com 1.10,2013-02-22 10:14:00,
2013-02-22 05:29:00,12.4,10.0,30.32,SSW,198,0.0,0.0,90,0.00,,,0.00,weatherlink.com 1.10,2013-02-22 10:29:00,
2013-02-22 05:44:00,11.7,9.0,30.33,SSW,198,0.0,0.0,89,0.00,,,0.00,weatherlink.com 1.10,2013-02-22 10:44:00,
2013-02-22 05:59:00,11.2,9.0,30.34,SSW,198,0.0,0.0,89,0.00,,,0.00,weatherlink.com 1.10,2013-02-22 10:59:00,
2013-02-22 06:14:00,10.5,8.0,30.36,SSW,198,0.0,0.0,88,0.00,,,0.00,weatherlink.com 1.10,2013-02-22 11:14:00,
2013-02-22 06:29:00,10.2,8.0,30.38,SSW,198,0.0,0.0,89,0.00,,,0.00,weatherlink.com 1.10,2013-02-22 11:29:00,
2013-02-22 06:44:00,10.1,8.0,30.38,SSW,198,0.0,2.0,89,0.00,,,0.00,weatherlink.com 1.10,2013-02-22 11:44:00,
2013-02-22 06:59:00,9.6,7.0,30.41,SSW,198,0.0,0.0,88,0.00,,,0.00,weatherlink.com 1.10,2013-02-22 11:59:00,
2013-02-22 07:14:00,10.0,7.0,30.40,SSW,198,0.0,1.0,89,0.00,,,0.00,weatherlink.com 1.10,2013-02-22 12:14:00,
2013-02-22 07:29:00,10.7,8.0,30.40,SSW,198,0.0,0.0,90,0.00,,,0.00,weatherlink.com 1.10,2013-02-22 12:29:00,
2013-02-22 07:44:00,12.7,11.0,30.41,SSW,198,0.0,2.0,91,0.00,,,0.00,weatherlink.com 1.10,2013-02-22 12:44:00,
2013-02-22 07:59:00,15.6,14.0,30.42,SSW,198,0.0,0.0,92,0.00,,,0.00,weatherlink.com 1.10,2013-02-22 12:59:00,
2013-02-22 08:14:00,18.4,16.0,30.42,SSW,198,0.0,0.0,89,0.00,,,0.00,weatherlink.com 1.10,2013-02-22 13:14:00,
2013-02-22 08:29:00,20.4,17.0,30.42,SSW,198,0.0,1.0,87,0.00,,,0.00,weatherlink.com 1.10,2013-02-22 13:29:00,
2013-02-22 08:45:00,21.8,18.0,30.41,SSW,198,0.0,4.0,85,0.00,,,0.00,weatherlink.com 1.10,2013-02-22 13:45:00,
2013-02-22 09:00:00,23.4,19.0,30.41,SSW,198,0.0,4.0,82,0.00,,,0.00,weatherlink.com 1.10,2013-02-22 14:00:00,
2013-02-22 09:15:00,25.4,20.0,30.41,SSW,198,0.0,4.0,79,0.00,,,0.00,weatherlink.com 1.10,2013-02-22 14:15:00,
2013-02-22 09:30:00,27.2,21.0,30.41,SSW,198,0.0,3.0,76,0.00,,,0.00,weatherlink.com 1.10,2013-02-22 14:30:00,
2013-02-22 09:45:00,28.7,21.0,30.40,SSW,198,3.0,5.0,72,0.00,,,0.00,weatherlink.com 1.10,2013-02-22 14:45:00,
2013-02-22 10:00:00,30.1,21.0,30.40,SSW,199,3.0,5.0,69,0.00,,,0.00,weatherlink.com 1.10,2013-02-22 15:00:00,
2013-02-22 10:15:00,30.5,21.0,30.39,SSW,200,2.0,5.0,67,0.00,,,0.00,weatherlink.com 1.10,2013-02-22 15:15:00,
2013-02-22 10:30:00,31.2,20.0,30.40,SSW,200,0.0,4.0,64,0.00,,,0.00,weatherlink.com 1.10,2013-02-22 15:30:00,
2013-02-22 10:45:00,32.5,20.0,30.39,SSW,200,2.0,4.0,61,0.00,,,0.00,weatherlink.com 1.10,2013-02-22 15:45:00,
2013-02-22 11:00:00,33.3,19.0,30.38,West,274,6.0,7.0,57,0.00,,,0.00,weatherlink.com 1.10,2013-02-22 16:00:00,
2013-02-22 11:15:00,34.1,19.0,30.38,WNW,300,0.0,4.0,54,0.00,,,0.00,weatherlink.com 1.10,2013-02-22 16:15:00,
2013-02-22 11:30:00,34.6,18.0,30.37,ESE,106,0.0,9.0,52,0.00,,,0.00,weatherlink.com 1.10,2013-02-22 16:30:00,
2013-02-22 11:48:00,35.6,19.0,30.37,NE,46,2.0,4.0,51,0.00,,,0.00,weatherlink.com 1.10,2013-02-22 16:48:00,
2013-02-22 12:00:00,35.8,20.0,30.36,NE,43,2.0,3.0,52,0.00,,,0.00,weatherlink.com 1.10,2013-02-22 17:00:00,
2013-02-22 12:15:00,35.4,19.0,30.35,WNW,292,0.0,5.0,51,0.00,,,0.00,weatherlink.com 1.10,2013-02-22 17:15:00,
2013-02-22 12:30:00,36.2,19.0,30.34,WNW,297,3.0,4.0,51,0.00,,,0.00,weatherlink.com 1.10,2013-02-22 17:30:00,
2013-02-22 12:45:00,35.9,19.0,30.34,WNW,285,0.0,8.0,51,0.00,,,0.00,weatherlink.com 1.10,2013-02-22 17:45:00,
2013-02-22 13:00:00,36.5,19.0,30.34,West,281,3.0,5.0,50,0.01,,,0.01,weatherlink.com 1.10,2013-02-22 18:00:00,
2013-02-22 13:30:00,37.5,19.0,30.33,SSW,202,2.0,4.0,48,0.01,,,0.01,weatherlink.com 1.10,2013-02-22 18:30:00,
2013-02-22 13:45:00,37.3,21.0,30.33,West,273,0.0,3.0,51,0.01,,,0.01,weatherlink.com 1.10,2013-02-22 18:45:00,
2013-02-22 14:00:00,37.5,19.0,30.33,WNW,285,0.0,4.0,47,0.00,,,0.01,weatherlink.com 1.10,2013-02-22 19:00:00,
2013-02-22 14:15:00,37.7,20.0,30.32,WNW,285,0.0,2.0,50,0.00,,,0.01,weatherlink.com 1.10,2013-02-22 19:15:00,
2013-02-22 14:31:00,38.0,19.0,30.31,WNW,285,0.0,3.0,47,0.00,,,0.01,weatherlink.com 1.10,2013-02-22 19:31:00,
2013-02-22 14:46:00,38.1,20.0,30.32,WNW,285,0.0,2.0,48,0.00,,,0.01,weatherlink.com 1.10,2013-02-22 19:46:00,
2013-02-22 15:01:00,38.0,19.0,30.32,WNW,285,1.0,3.0,47,0.00,,,0.01,weatherlink.com 1.10,2013-02-22 20:01:00,
2013-02-22 15:16:00,37.9,19.0,30.32,WNW,283,0.0,3.0,47,0.00,,,0.01,weatherlink.com 1.10,2013-02-22 20:16:00,
2013-02-22 15:31:00,38.0,19.0,30.32,WNW,283,0.0,3.0,47,0.00,,,0.01,weatherlink.com 1.10,2013-02-22 20:31:00,
2013-02-22 15:46:00,38.0,20.0,30.32,WNW,283,0.0,3.0,48,0.00,,,0.01,weatherlink.com 1.10,2013-02-22 20:46:00,
2013-02-22 16:01:00,37.7,20.0,30.31,East,91,0.0,3.0,49,0.00,,,0.01,weatherlink.com 1.10,2013-02-22 21:01:00,
2013-02-22 16:16:00,37.2,20.0,30.30,ESE,105,0.0,5.0,50,0.00,,,0.01,weatherlink.com 1.10,2013-02-22 21:16:00,
2013-02-22 16:31:00,36.7,21.0,30.30,ESE,103,0.0,0.0,53,0.00,,,0.01,weatherlink.com 1.10,2013-02-22 21:31:00,
2013-02-22 16:46:00,35.9,22.0,30.30,ESE,103,0.0,0.0,58,0.00,,,0.01,weatherlink.com 1.10,2013-02-22 21:46:00,
2013-02-22 17:01:00,35.1,23.0,30.30,ESE,103,0.0,0.0,61,0.00,,,0.01,weatherlink.com 1.10,2013-02-22 22:01:00,
2013-02-22 17:16:00,33.9,23.0,30.31,ESE,103,0.0,0.0,64,0.00,,,0.01,weatherlink.com 1.10,2013-02-22 22:16:00,
2013-02-22 17:31:00,32.3,22.0,30.31,ESE,103,0.0,0.0,66,0.00,,,0.01,weatherlink.com 1.10,2013-02-22 22:31:00,
2013-02-22 17:46:00,30.9,23.0,30.31,ESE,103,0.0,0.0,71,0.00,,,0.01,weatherlink.com 1.10,2013-02-22 22:46:00,
2013-02-22 18:16:00,29.2,22.0,30.31,ESE,103,0.0,0.0,74,0.00,,,0.01,weatherlink.com 1.10,2013-02-22 23:16:00,
2013-02-22 18:31:00,28.8,22.0,30.32,ESE,103,0.0,0.0,76,0.00,,,0.01,weatherlink.com 1.10,2013-02-22 23:31:00,
2013-02-22 18:46:00,28.7,22.0,30.32,ESE,103,0.0,0.0,77,0.00,,,0.01,weatherlink.com 1.10,2013-02-22 23:46:00,
2013-02-22 19:03:00,28.5,22.0,30.32,ESE,103,0.0,0.0,78,0.00,,,0.01,weatherlink.com 1.10,2013-02-23 00:03:00,
2013-02-22 19:16:00,28.5,23.0,30.32,ESE,103,0.0,0.0,79,0.00,,,0.01,weatherlink.com 1.10,2013-02-23 00:16:00,
2013-02-22 19:31:00,28.6,22.0,30.32,ESE,103,0.0,1.0,77,0.00,,,0.01,weatherlink.com 1.10,2013-02-23 00:31:00,
2013-02-22 19:46:00,28.6,23.0,30.32,ESE,103,0.0,0.0,79,0.00,,,0.01,weatherlink.com 1.10,2013-02-23 00:46:00,
2013-02-22 20:01:00,28.5,23.0,30.32,ESE,103,0.0,0.0,80,0.00,,,0.01,weatherlink.com 1.10,2013-02-23 01:01:00,
2013-02-22 20:16:00,28.4,23.0,30.33,ESE,103,0.0,1.0,79,0.00,,,0.01,weatherlink.com 1.10,2013-02-23 01:16:00,
2013-02-22 20:31:00,28.4,23.0,30.33,ESE,103,0.0,0.0,79,0.00,,,0.01,weatherlink.com 1.10,2013-02-23 01:31:00,
2013-02-22 20:46:00,28.5,23.0,30.32,ESE,103,0.0,2.0,80,0.00,,,0.01,weatherlink.com 1.10,2013-02-23 01:46:00,
2013-02-22 21:01:00,28.8,22.0,30.32,ESE,103,0.0,2.0,77,0.00,,,0.01,weatherlink.com 1.10,2013-02-23 02:01:00,
2013-02-22 21:16:00,30.3,22.0,30.32,East,91,0.0,5.0,71,0.00,,,0.01,weatherlink.com 1.10,2013-02-23 02:16:00,
2013-02-22 21:31:00,31.2,22.0,30.33,East,92,1.0,6.0,68,0.00,,,0.01,weatherlink.com 1.10,2013-02-23 02:31:00,
2013-02-22 21:46:00,31.4,22.0,30.32,East,92,2.0,3.0,68,0.00,,,0.01,weatherlink.com 1.10,2013-02-23 02:46:00,
2013-02-22 22:01:00,31.1,22.0,30.32,East,92,0.0,3.0,70,0.00,,,0.01,weatherlink.com 1.10,2013-02-23 03:01:00,
2013-02-22 22:16:00,30.6,23.0,30.32,East,91,0.0,1.0,73,0.00,,,0.01,weatherlink.com 1.10,2013-02-23 03:16:00,
2013-02-22 22:31:00,29.9,24.0,30.32,East,91,0.0,0.0,77,0.00,,,0.01,weatherlink.com 1.10,2013-02-23 03:31:00,
2013-02-22 22:46:00,29.3,23.0,30.32,East,91,0.0,1.0,77,0.00,,,0.01,weatherlink.com 1.10,2013-02-23 03:46:00,
2013-02-22 23:01:00,28.8,23.0,30.33,East,91,0.0,2.0,79,0.00,,,0.01,weatherlink.com 1.10,2013-02-23 04:01:00,
2013-02-22 23:16:00,29.0,23.0,30.33,East,91,0.0,0.0,79,0.00,,,0.01,weatherlink.com 1.10,2013-02-23 04:16:00,
2013-02-22 23:31:00,29.1,23.0,30.33,East,91,0.0,0.0,79,0.00,,,0.01,weatherlink.com 1.10,2013-02-23 04:31:00,
2013-02-22 23:46:00,29.3,24.0,30.32,East,91,0.0,2.0,79,0.00,,,0.01,weatherlink.com 1.10,2013-02-23 04:46:00,